• Join FlightAware (Why Join?)
  • Login
  • US Flag 
 
10:03PM EST


 

Airport Tracker/Info


-or-


 

Live Flight TrackerFlight Track Log ✈ N612CT ✈ 05-Nov-2013 ✈ KGNV - KAPF

Flight Track Log - Related Links

Times and Time Zones

All times are in EST time to prevent confusion due to time zone crossing. See the N612CT flight status page for this flight to view local times or setup timezone preferences in your user account.

Time Position Orientation Groundspeed Altitude Reporting Facility
EST Latitude Longitude Course Direction KTS MPH feet Rate Location/Type
10:41AM 29.6950 -82.2661 105° East 88 101 500  Level Jacksonville Center
10:42AM 29.6864 -82.2303 105° East 119 137 1,400 840 Climbing Jacksonville Center
10:43AM 29.6511 -82.2258 174° South 152 175 2,400 900 Climbing Jacksonville Center
10:44AM 29.6175 -82.2236 177° South 135 155 3,200 840 Climbing Jacksonville Center
10:45AM 29.5736 -82.2264 183° South 132 152 4,200 840 Climbing Jacksonville Center
10:46AM 29.5403 -82.2267 180° South 135 155 5,000 780 Climbing Jacksonville Center
10:47AM 29.5006 -82.2244 177° South 131 151 5,900 720 Climbing Jacksonville Center
10:48AM 29.4672 -82.2247 180° South 130 150 6,500 720 Climbing Jacksonville Center
10:49AM 29.4256 -82.2250 180° South 127 146 7,400 780 Climbing Jacksonville Center
10:50AM 29.3922 -82.2275 184° South 121 139 8,200 780 Climbing Jacksonville Center
10:51AM 29.3544 -82.2278 180° South 130 150 9,000 360 Climbing Jacksonville Center
10:52AM 29.3108 -82.2306 183° South 150 173 9,000  Level Jacksonville Center
10:53AM 29.2669 -82.2261 175° South 164 189 9,000  Level Jacksonville Center
10:54AM 29.2272 -82.2264 180° South 159 183 9,000  Level Jacksonville Center
10:55AM 29.1833 -82.2289 183° South 157 181 9,000  Level Jacksonville Center
10:56AM 29.1333 -82.2244 176° South 153 176 9,000  Level Jacksonville Center
10:57AM 29.0914 -82.2131 167° South 150 173 9,000  Level Jacksonville Center
10:58AM 29.0456 -82.2039 170° South 152 175 9,000  Level Jacksonville Center
10:59AM 29.0036 -82.1969 172° South 156 180 9,000  Level Jacksonville Center
11:00AM 28.9578 -82.1900 172° South 157 181 9,000  Level Jacksonville Center
11:01AM 28.9181 -82.1858 175° South 157 181 9,000  Level Jacksonville Center
11:02AM 28.8742 -82.1742 167° South 156 180 9,000  Level Jacksonville Center
11:03AM 28.8281 -82.1650 170° South 154 177 9,000  Level Jacksonville Center
11:04AM 28.7864 -82.1583 172° South 155 178 9,000 -60 Level Jacksonville Center
11:06AM 28.7167 -82.1500 174° South 156 180 8,900  Descending Tampa TRACON
11:07AM 28.6833 -82.1333 156° South 155 178 9,000  Climbing Tampa TRACON
11:08AM 28.6333 -82.1333 180° South 154 177 9,000  Level Tampa TRACON
11:09AM 28.5833 -82.1167 164° South 157 181 9,000  Level Tampa TRACON
11:10AM 28.5500 -82.1167 180° South 155 178 9,000  Level Tampa TRACON
11:11AM 28.5000 -82.1000 164° South 158 182 9,000  Level Tampa TRACON
11:12AM 28.4667 -82.1000 180° South 157 181 9,000  Level Tampa TRACON
11:13AM 28.4167 -82.0833 164° South 157 181 9,000  Level Tampa TRACON
11:14AM 28.3833 -82.0833 180° South 155 178 9,000  Level Tampa TRACON
11:15AM 28.3333 -82.0833 180° South 156 180 9,000  Level Tampa TRACON
11:16AM 28.2833 -82.0667 164° South 157 181 9,000  Level Tampa TRACON
11:17AM 28.2500 -82.0667 180° South 157 181 9,000  Level Tampa TRACON
11:18AM 28.2000 -82.0500 164° South 155 178 9,000  Level Tampa TRACON
11:19AM 28.1667 -82.0500 180° South 155 178 9,000  Level Tampa TRACON
11:20AM 28.1167 -82.0333 164° South 155 178 9,000  Level Tampa TRACON
11:22AM 28.0492 -82.0272 175° South 102 117 9,000  Level Miami Center
11:23AM 28.0056 -82.0183 170° South 150 173 9,000  Level Miami Center
11:24AM 27.9622 -82.0044 164° South 162 186 9,000  Level Miami Center
11:25AM 27.9233 -81.9817 153° Southeast 162 186 9,000  Level Miami Center
11:26AM 27.8825 -81.9586 153° Southeast 167 192 9,000  Level Miami Center
11:27AM 27.8417 -81.9358 154° Southeast 167 192 9,000  Level Miami Center
11:28AM 27.8047 -81.9131 151° Southeast 172 198 9,000  Level Miami Center
11:29AM 27.7597 -81.8875 153° Southeast 172 198 9,000  Level Miami Center
11:30AM 27.7189 -81.8647 154° Southeast 172 198 9,000  Level Miami Center
11:31AM 27.6758 -81.8439 157° South 167 192 9,000  Level Miami Center
11:32AM 27.6389 -81.8236 154° Southeast 167 192 9,000  Level Miami Center
11:33AM 27.5978 -81.8031 156° South 167 192 9,000  Level Miami Center
11:34AM 27.5550 -81.7778 152° Southeast 167 192 9,000  Level Miami Center
11:35AM 27.5156 -81.7714 172° South 167 192 9,000  Level Miami Center
11:36AM 27.4700 -81.7578 165° South 167 192 9,000  Level Miami Center
11:37AM 27.4244 -81.7467 168° South 167 192 9,000  Level Miami Center
11:38AM 27.3811 -81.7331 164° South 162 186 9,000  Level Miami Center
11:39AM 27.3378 -81.7219 167° South 162 186 9,000  Level Miami Center
11:40AM 27.2922 -81.7106 167° South 162 186 9,000 -60 Level Miami Center
11:41AM 27.2486 -81.6994 167° South 162 186 8,900 -120 Descending Miami Center
11:42AM 27.2033 -81.6858 165° South 162 186 8,800 -360 Descending Miami Center
11:43AM 27.1556 -81.6744 168° South 162 186 8,200 -600 Descending Miami Center
11:44AM 27.1081 -81.6586 163° South 173 199 7,700 -540 Descending Miami Center
11:45AM 27.0583 -81.6447 166° South 179 206 7,200 -360 Descending Miami Center
11:46AM 27.0083 -81.6428 178° South 179 206 7,000 -360 Descending Miami Center
11:47AM 26.9578 -81.6594 196° South 184 212 6,500 -540 Descending Miami Center
11:48AM 26.9092 -81.6783 199° South 190 219 6,000 -540 Descending Miami Center
11:50AM 26.8274 -81.6838 183° South  Level FlightAware Approximate
11:57AM 26.5342 -81.7123 193° South  Level FlightAware Approximate
11:58AM 26.4926 -81.7167 180° South  Level FlightAware Approximate
11:59AM 26.4506 -81.7167 180° South  Level FlightAware Approximate
12:00PM 26.4089 -81.7207 189° South  Level FlightAware Approximate
12:01PM 26.3673 -81.7277 189° South  Level FlightAware Approximate
12:02PM 26.3258 -81.7346 188° South  Level FlightAware Approximate
12:03PM 26.2843 -81.7415 188° South  Level FlightAware Approximate
12:04PM 26.2428 -81.7484 188° South  Level FlightAware Approximate
12:05PM 26.2014 -81.7564 190° South  Level FlightAware Approximate
12:06PM 26.1600 -81.7647 190° South  Level FlightAware Approximate
12:07PM 26.1500 -81.7667 190° South  Level FlightAware Approximate
12:08PM 26.1524 -81.7756 190° South  Level Estimated
12:09PM 26.1524 -81.7756 190° South  Level Estimated
12:10PM 26.1524 -81.7756 190° South  Level Estimated
12:11PM 26.1524 -81.7756 190° South  Level Estimated
12:12PM 26.1524 -81.7756 190° South  Level Estimated
12:13PM 26.1524 -81.7756 190° South  Level Estimated
12:14PM 26.1524 -81.7756 190° South  Level Estimated
12:15PM 26.1524 -81.7756 190° South  Level Estimated
12:16PM 26.1524 -81.7756 190° South  Level Estimated
12:17PM 26.1524 -81.7756 190° South  Level Estimated
12:18PM 26.1524 -81.7756 190° South  Level Estimated
12:19PM 26.1524 -81.7756 190° South  Level Estimated
12:20PM 26.1524 -81.7756 190° South  Level Estimated